Time;durP1;ratioP1;P1;durP2;ratioP2;P2;SDS_P1;SDS_P2;PMS_P1;PMS_P2;Temp;Humidity;BMP_temperature;BMP_pressure;BME280_temperature;BME280_humidity;BME280_pressure;Samples;Min_cycle;Max_cycle;Signal;HPM_P1;HPM_P2
2022/05/03 00:00:46;;;;;;;;;36.75;33.75;;;;;;;;5045946;28;45395;-76
2022/05/03 00:03:38;;;;;;;;;34.75;31.75;;;;;;;;5052305;28;47306;-76
2022/05/03 00:06:26;;;;;;;;;42.25;34.50;;;;;;;;5052934;28;45642;-76
2022/05/03 00:09:12;;;;;;;;;42.75;35.00;;;;;;;;5050921;28;45678;-76
2022/05/03 00:11:48;;;;;;;;;45.50;35.75;;;;;;;;5057120;28;45312;-75
2022/05/03 00:14:13;;;;;;;;;32.00;28.50;;;;;;;;5055024;28;45440;-76
2022/05/03 00:16:39;;;;;;;;;36.50;33.00;;;;;;;;5055547;28;46386;-75
2022/05/03 00:19:09;;;;;;;;;41.25;36.75;;;;;;;;5051548;28;45209;-75
2022/05/03 00:21:35;;;;;;;;;37.75;32.00;;;;;;;;5057371;28;45331;-76
2022/05/03 00:24:00;;;;;;;;;31.75;29.25;;;;;;;;5052228;28;45443;-75
2022/05/03 00:26:28;;;;;;;;;40.50;34.75;;;;;;;;5054413;28;45344;-76
2022/05/03 00:28:53;;;;;;;;;38.00;34.00;;;;;;;;5058177;28;45355;-76
2022/05/03 00:31:18;;;;;;;;;42.00;34.25;;;;;;;;5055324;28;45327;-76
2022/05/03 00:33:44;;;;;;;;;42.25;33.50;;;;;;;;5057524;28;46903;-74
2022/05/03 00:36:09;;;;;;;;;39.00;32.75;;;;;;;;5055849;28;46212;-74
2022/05/03 00:38:35;;;;;;;;;42.00;36.75;;;;;;;;5055411;28;45255;-74
2022/05/03 00:41:01;;;;;;;;;40.00;34.00;;;;;;;;5056928;28;45385;-74
2022/05/03 00:43:35;;;;;;;;;41.25;34.25;;;;;;;;5054220;28;45460;-76
2022/05/03 00:46:10;;;;;;;;;42.50;34.75;;;;;;;;5056676;28;46203;-74
2022/05/03 00:49:04;;;;;;;;;40.00;35.75;;;;;;;;5055073;28;45395;-74
2022/05/03 00:51:43;;;;;;;;;38.75;32.75;;;;;;;;5054821;28;45395;-74
2022/05/03 00:54:08;;;;;;;;;42.50;34.75;;;;;;;;5044625;28;46881;-76
2022/05/03 00:56:36;;;;;;;;;44.50;37.00;;;;;;;;5052719;28;45427;-76
2022/05/03 00:59:01;;;;;;;;;38.50;34.00;;;;;;;;5045995;28;45343;-75
2022/05/03 01:01:42;;;;;;;;;40.75;35.00;;;;;;;;5045801;28;45518;-75
2022/05/03 01:04:26;;;;;;;;;39.50;33.00;;;;;;;;5050837;28;46199;-75
2022/05/03 01:06:54;;;;;;;;;40.00;33.75;;;;;;;;5058240;28;45435;-75
2022/05/03 01:09:22;;;;;;;;;37.50;34.25;;;;;;;;5061024;28;45805;-74
2022/05/03 01:11:58;;;;;;;;;36.00;32.00;;;;;;;;5059703;28;45482;-75
2022/05/03 01:14:36;;;;;;;;;39.00;32.25;;;;;;;;5061821;28;45312;-75
2022/05/03 01:17:17;;;;;;;;;37.00;32.25;;;;;;;;5056117;28;46011;-75
2022/05/03 01:19:56;;;;;;;;;42.25;35.75;;;;;;;;5059279;28;45313;-74
2022/05/03 01:22:40;;;;;;;;;44.25;35.50;;;;;;;;5060660;28;45361;-75
2022/05/03 01:25:14;;;;;;;;;38.00;33.00;;;;;;;;5065981;28;47137;-76
2022/05/03 01:27:39;;;;;;;;;38.25;34.50;;;;;;;;5054156;28;47415;-74
2022/05/03 01:30:06;;;;;;;;;33.50;30.00;;;;;;;;5061458;28;45154;-75
2022/05/03 01:32:32;;;;;;;;;37.00;33.75;;;;;;;;5053551;28;45392;-75
2022/05/03 01:35:00;;;;;;;;;37.75;35.00;;;;;;;;5053813;28;45376;-75
2022/05/03 01:37:26;;;;;;;;;36.25;31.25;;;;;;;;5053600;28;46500;-75
2022/05/03 01:40:09;;;;;;;;;43.25;34.50;;;;;;;;5053665;28;45391;-75
2022/05/03 01:42:37;;;;;;;;;39.25;32.75;;;;;;;;5055091;28;45367;-74
2022/05/03 01:45:10;;;;;;;;;39.00;32.75;;;;;;;;5061148;28;45467;-75
2022/05/03 01:47:35;;;;;;;;;38.50;31.75;;;;;;;;5055858;28;47566;-75
2022/05/03 01:50:19;;;;;;;;;31.75;30.75;;;;;;;;5061386;28;45343;-74
2022/05/03 01:52:57;;;;;;;;;37.50;30.75;;;;;;;;5052822;28;45367;-75
2022/05/03 01:55:32;;;;;;;;;36.00;33.25;;;;;;;;5057876;28;45545;-76
2022/05/03 01:58:15;;;;;;;;;34.00;30.00;;;;;;;;5055410;28;45360;-76
2022/05/03 02:00:47;;;;;;;;;37.50;34.00;;;;;;;;5047925;28;45805;-75
2022/05/03 02:03:38;;;;;;;;;32.50;29.50;;;;;;;;5054005;28;46589;-76
2022/05/03 02:06:11;;;;;;;;;31.00;26.75;;;;;;;;5041223;28;46027;-75
2022/05/03 02:08:51;;;;;;;;;36.00;31.25;;;;;;;;5046228;28;47949;-75
2022/05/03 02:11:36;;;;;;;;;36.25;33.00;;;;;;;;5055562;28;46204;-75
2022/05/03 02:17:07;;;;;;;;;38.00;30.50;;;;;;;;5057551;28;45257;-76
2022/05/03 02:19:51;;;;;;;;;39.00;31.25;;;;;;;;5039001;28;47215;-76
2022/05/03 02:22:26;;;;;;;;;33.50;30.50;;;;;;;;5054711;28;45299;-75
2022/05/03 02:25:02;;;;;;;;;35.50;32.00;;;;;;;;5061058;28;45236;-76
2022/05/03 02:27:31;;;;;;;;;32.00;30.00;;;;;;;;5049964;28;46092;-75
2022/05/03 02:29:57;;;;;;;;;37.75;32.75;;;;;;;;5060629;28;45313;-74
2022/05/03 02:32:26;;;;;;;;;32.25;30.25;;;;;;;;5051718;28;45530;-75
2022/05/03 02:34:59;;;;;;;;;34.00;31.75;;;;;;;;5061124;28;45271;-75
2022/05/03 02:37:28;;;;;;;;;32.25;30.00;;;;;;;;5052750;28;46413;-74
2022/05/03 02:40:00;;;;;;;;;33.75;28.75;;;;;;;;5060524;28;45993;-74
2022/05/03 02:42:25;;;;;;;;;41.50;33.00;;;;;;;;5054820;28;45312;-75
2022/05/03 02:44:55;;;;;;;;;37.50;34.25;;;;;;;;5059236;28;45390;-74
2022/05/03 02:47:29;;;;;;;;;41.50;33.50;;;;;;;;5054053;28;45488;-75
2022/05/03 02:49:57;;;;;;;;;41.25;35.25;;;;;;;;5059040;28;47655;-75
2022/05/03 02:52:22;;;;;;;;;42.00;35.00;;;;;;;;5084038;27;45304;-75
2022/05/03 02:54:57;;;;;;;;;40.00;35.75;;;;;;;;5059492;28;45446;-75
2022/05/03 02:57:34;;;;;;;;;47.25;38.00;;;;;;;;5052258;28;45241;-74
2022/05/03 03:02:52;;;;;;;;;40.50;34.25;;;;;;;;5055522;28;47227;-74
2022/05/03 03:05:21;;;;;;;;;37.75;33.50;;;;;;;;5058627;28;45497;-74
2022/05/03 03:07:46;;;;;;;;;41.25;34.50;;;;;;;;5056748;28;45265;-75
2022/05/03 03:10:14;;;;;;;;;38.25;34.25;;;;;;;;5060154;28;45336;-75
2022/05/03 03:12:43;;;;;;;;;42.00;36.50;;;;;;;;5048434;28;45571;-75
2022/05/03 03:15:09;;;;;;;;;34.25;32.25;;;;;;;;5047383;28;45245;-75
2022/05/03 03:17:48;;;;;;;;;33.00;28.50;;;;;;;;5049251;28;46553;-75
2022/05/03 03:20:14;;;;;;;;;41.50;35.00;;;;;;;;5049104;28;45372;-75
2022/05/03 03:22:40;;;;;;;;;39.25;33.25;;;;;;;;5053580;28;45443;-75
2022/05/03 03:25:06;;;;;;;;;41.75;36.00;;;;;;;;5059851;28;45317;-75
2022/05/03 03:27:33;;;;;;;;;47.25;34.00;;;;;;;;5049805;28;46241;-75
2022/05/03 03:30:00;;;;;;;;;35.50;33.50;;;;;;;;5059599;28;46311;-75
2022/05/03 03:32:26;;;;;;;;;38.75;36.25;;;;;;;;5053175;28;45239;-75
2022/05/03 03:34:55;;;;;;;;;33.00;27.75;;;;;;;;5059953;28;45339;-75
2022/05/03 03:37:22;;;;;;;;;45.50;35.50;;;;;;;;5053141;28;45479;-75
2022/05/03 03:39:47;;;;;;;;;48.00;39.75;;;;;;;;5059513;28;45979;-76
2022/05/03 03:42:13;;;;;;;;;42.75;34.50;;;;;;;;5054030;28;45392;-75
2022/05/03 03:44:38;;;;;;;;;35.50;30.00;;;;;;;;5058460;28;45259;-75
2022/05/03 03:47:04;;;;;;;;;43.00;32.75;;;;;;;;5052831;28;45371;-75
2022/05/03 03:49:29;;;;;;;;;39.75;33.75;;;;;;;;5057981;28;46869;-75
2022/05/03 03:51:55;;;;;;;;;38.75;33.00;;;;;;;;5055876;28;45537;-75
2022/05/03 03:54:20;;;;;;;;;38.00;35.25;;;;;;;;5055764;28;45324;-75
2022/05/03 03:56:46;;;;;;;;;39.75;34.50;;;;;;;;5054657;28;45426;-76
2022/05/03 03:59:13;;;;;;;;;38.75;33.50;;;;;;;;5056514;28;45906;-75
2022/05/03 04:01:39;;;;;;;;;41.75;35.00;;;;;;;;5055657;28;45396;-75
2022/05/03 04:04:05;;;;;;;;;37.25;33.00;;;;;;;;5050629;28;45521;-74
2022/05/03 04:06:30;;;;;;;;;43.00;33.25;;;;;;;;5053164;28;46256;-75
2022/05/03 04:08:56;;;;;;;;;38.75;32.00;;;;;;;;5058264;28;45566;-77
2022/05/03 04:11:21;;;;;;;;;36.50;33.00;;;;;;;;5056369;28;45681;-76
2022/05/03 04:13:46;;;;;;;;;43.00;36.25;;;;;;;;5051167;28;45442;-75
2022/05/03 04:16:11;;;;;;;;;39.50;35.25;;;;;;;;5056950;28;45513;-77
2022/05/03 04:18:46;;;;;;;;;47.75;36.00;;;;;;;;5051837;28;45644;-75
2022/05/03 04:21:12;;;;;;;;;37.50;33.00;;;;;;;;5057351;28;46960;-75
2022/05/03 04:23:38;;;;;;;;;46.00;37.00;;;;;;;;5055693;28;45354;-76
2022/05/03 04:26:03;;;;;;;;;37.00;32.25;;;;;;;;5055905;28;45387;-75
2022/05/03 04:28:28;;;;;;;;;44.25;39.25;;;;;;;;5053496;28;45256;-75
2022/05/03 04:30:54;;;;;;;;;43.75;35.25;;;;;;;;5056774;28;45513;-75
2022/05/03 04:33:19;;;;;;;;;40.75;34.00;;;;;;;;5054471;28;45523;-74
2022/05/03 04:35:44;;;;;;;;;45.50;35.25;;;;;;;;5057996;28;45407;-74
2022/05/03 04:38:09;;;;;;;;;39.25;33.25;;;;;;;;5052004;28;45328;-74
2022/05/03 04:40:34;;;;;;;;;32.25;29.25;;;;;;;;5059094;28;45244;-73
2022/05/03 04:42:59;;;;;;;;;40.00;35.25;;;;;;;;5052293;28;45664;-74
2022/05/03 04:45:25;;;;;;;;;44.50;38.25;;;;;;;;5057380;28;46319;-73
2022/05/03 04:47:50;;;;;;;;;40.75;35.00;;;;;;;;5051843;28;45348;-74
2022/05/03 04:50:15;;;;;;;;;45.25;36.00;;;;;;;;5056473;28;45362;-75
2022/05/03 04:52:41;;;;;;;;;39.00;32.00;;;;;;;;5055311;28;45276;-75
2022/05/03 04:55:06;;;;;;;;;43.75;36.00;;;;;;;;5051553;28;45604;-75
2022/05/03 04:57:31;;;;;;;;;37.75;32.50;;;;;;;;5053782;28;46176;-75
2022/05/03 04:59:57;;;;;;;;;41.25;34.00;;;;;;;;5058241;28;45200;-76
2022/05/03 05:02:22;;;;;;;;;45.50;34.75;;;;;;;;5051025;28;45193;-75
2022/05/03 05:04:47;;;;;;;;;48.00;34.00;;;;;;;;5058469;28;45309;-75
2022/05/03 05:07:12;;;;;;;;;37.00;34.75;;;;;;;;5054087;28;47934;-75
2022/05/03 05:10:22;;;;;;;;;50.75;39.00;;;;;;;;5058045;28;45361;-76
2022/05/03 05:12:23;;;;;;;;;37.00;32.75;;;;;;;;5055766;28;45419;-75
2022/05/03 05:14:48;;;;;;;;;43.25;36.00;;;;;;;;5057976;28;45740;-75
2022/05/03 05:17:13;;;;;;;;;36.25;33.75;;;;;;;;5052148;28;45468;-73
2022/05/03 05:19:38;;;;;;;;;41.00;35.75;;;;;;;;5056703;28;46402;-76
2022/05/03 05:22:04;;;;;;;;;38.50;33.50;;;;;;;;5053095;28;45497;-75
2022/05/03 05:24:29;;;;;;;;;42.00;34.25;;;;;;;;5054917;28;45644;-74
2022/05/03 05:26:54;;;;;;;;;40.75;35.50;;;;;;;;5052453;28;45253;-75
2022/05/03 05:29:19;;;;;;;;;38.75;34.00;;;;;;;;5057635;28;45805;-74
2022/05/03 05:31:44;;;;;;;;;40.50;33.75;;;;;;;;5051008;28;45440;-74
2022/05/03 05:34:09;;;;;;;;;40.00;35.00;;;;;;;;5058234;28;45351;-75
2022/05/03 05:36:35;;;;;;;;;36.50;32.00;;;;;;;;5052487;28;46242;-76
2022/05/03 05:39:00;;;;;;;;;42.50;36.00;;;;;;;;5053665;28;45359;-73
2022/05/03 05:41:25;;;;;;;;;43.75;37.75;;;;;;;;5054107;28;45330;-76
2022/05/03 05:43:50;;;;;;;;;45.50;36.00;;;;;;;;5055542;28;45311;-75
2022/05/03 05:46:16;;;;;;;;;37.25;32.50;;;;;;;;5054726;28;46091;-75
2022/05/03 05:48:41;;;;;;;;;42.00;34.75;;;;;;;;5053228;28;45943;-74
2022/05/03 05:51:06;;;;;;;;;43.25;34.75;;;;;;;;5086760;27;45299;-74
2022/05/03 05:53:32;;;;;;;;;43.00;36.75;;;;;;;;5059161;28;45802;-73
2022/05/03 05:55:57;;;;;;;;;45.75;36.50;;;;;;;;5058969;28;45326;-73
2022/05/03 05:58:22;;;;;;;;;42.50;35.00;;;;;;;;5059761;28;45387;-74
2022/05/03 06:00:47;;;;;;;;;45.25;37.00;;;;;;;;5059549;28;45244;-73
2022/05/03 06:03:14;;;;;;;;;50.75;38.00;;;;;;;;5058651;28;45521;-73
2022/05/03 06:05:39;;;;;;;;;48.75;37.75;;;;;;;;5059978;28;45464;-75
2022/05/03 06:08:06;;;;;;;;;45.75;37.00;;;;;;;;5058300;28;45372;-75
2022/05/03 06:10:31;;;;;;;;;45.25;36.00;;;;;;;;5056965;28;45222;-74
2022/05/03 06:12:59;;;;;;;;;46.50;36.00;;;;;;;;5059358;28;45617;-74
2022/05/03 06:15:25;;;;;;;;;41.50;35.75;;;;;;;;5060443;28;45447;-75
2022/05/03 06:17:51;;;;;;;;;47.25;37.25;;;;;;;;5052480;28;45363;-74
2022/05/03 06:20:17;;;;;;;;;38.75;33.00;;;;;;;;5061363;28;45323;-73
2022/05/03 06:22:42;;;;;;;;;45.75;36.00;;;;;;;;5059309;28;45543;-74
2022/05/03 06:25:08;;;;;;;;;43.50;38.25;;;;;;;;5052228;28;45307;-74
2022/05/03 06:27:34;;;;;;;;;49.75;37.75;;;;;;;;5050228;28;45344;-75
2022/05/03 06:29:59;;;;;;;;;49.25;37.50;;;;;;;;5060789;28;45352;-74
2022/05/03 06:32:25;;;;;;;;;46.25;34.00;;;;;;;;5053868;28;45321;-74
2022/05/03 06:34:50;;;;;;;;;41.75;34.75;;;;;;;;5060551;28;45450;-74
2022/05/03 06:37:18;;;;;;;;;43.25;35.00;;;;;;;;5054221;28;45355;-74
2022/05/03 06:39:43;;;;;;;;;47.25;36.75;;;;;;;;5060744;28;44784;-74
2022/05/03 06:42:09;;;;;;;;;40.50;34.50;;;;;;;;5054039;28;45287;-74
2022/05/03 06:44:34;;;;;;;;;36.50;33.00;;;;;;;;5059373;28;48251;-74
2022/05/03 06:47:00;;;;;;;;;41.50;33.00;;;;;;;;5053992;28;45311;-76
2022/05/03 06:49:25;;;;;;;;;37.00;32.50;;;;;;;;5060619;28;45364;-74
2022/05/03 06:51:51;;;;;;;;;37.75;33.75;;;;;;;;5057291;28;45260;-73
2022/05/03 06:54:16;;;;;;;;;40.25;34.00;;;;;;;;5059218;28;47194;-74
2022/05/03 06:56:41;;;;;;;;;42.75;34.00;;;;;;;;5054104;28;45544;-74
2022/05/03 06:59:07;;;;;;;;;40.25;33.75;;;;;;;;5055875;28;45408;-74
2022/05/03 07:01:32;;;;;;;;;38.25;32.00;;;;;;;;5055005;28;45332;-74
2022/05/03 07:03:57;;;;;;;;;41.75;33.50;;;;;;;;5058061;28;45437;-74
2022/05/03 07:06:23;;;;;;;;;40.75;35.25;;;;;;;;5056862;28;45225;-74
2022/05/03 07:08:48;;;;;;;;;37.75;34.00;;;;;;;;5059647;28;45205;-74
2022/05/03 07:11:15;;;;;;;;;38.00;31.00;;;;;;;;5057104;28;45496;-74
2022/05/03 07:13:40;;;;;;;;;35.00;32.25;;;;;;;;5051133;28;45594;-74
2022/05/03 07:16:05;;;;;;;;;38.00;33.50;;;;;;;;5057770;28;45894;-73
2022/05/03 07:23:58;;;;;;;;;43.75;33.25;;;;;;;;5058572;28;45406;-74
2022/05/03 07:26:24;;;;;;;;;30.50;27.50;;;;;;;;5056775;28;45482;-73
2022/05/03 07:28:49;;;;;;;;;31.00;29.50;;;;;;;;5057950;28;45192;-74
2022/05/03 07:31:18;;;;;;;;;38.75;31.00;;;;;;;;5056987;28;46452;-73
2022/05/03 07:33:44;;;;;;;;;42.00;33.50;;;;;;;;5047072;28;47380;-74
2022/05/03 07:36:09;;;;;;;;;35.00;32.00;;;;;;;;5056506;28;45415;-74
2022/05/03 07:38:34;;;;;;;;;37.50;32.00;;;;;;;;5055708;28;45276;-75
2022/05/03 07:41:00;;;;;;;;;32.00;30.75;;;;;;;;5056436;28;46081;-75
2022/05/03 07:43:25;;;;;;;;;34.50;30.50;;;;;;;;5054576;28;46108;-75
2022/05/03 07:45:50;;;;;;;;;36.75;31.50;;;;;;;;5057911;28;45345;-75
2022/05/03 07:48:16;;;;;;;;;35.25;32.50;;;;;;;;5054557;28;45402;-76
2022/05/03 07:50:41;;;;;;;;;40.00;31.75;;;;;;;;5058589;28;45295;-76
2022/05/03 07:53:06;;;;;;;;;31.50;28.00;;;;;;;;5057781;28;46331;-76
2022/05/03 07:55:31;;;;;;;;;33.00;29.50;;;;;;;;5058878;28;45280;-76
2022/05/03 07:57:57;;;;;;;;;37.00;32.75;;;;;;;;5057541;28;45323;-76
2022/05/03 08:00:22;;;;;;;;;31.50;29.50;;;;;;;;5059295;28;45340;-75
2022/05/03 08:02:47;;;;;;;;;30.50;28.25;;;;;;;;5050586;28;46056;-76
2022/05/03 08:05:12;;;;;;;;;30.25;26.25;;;;;;;;5057662;28;45341;-75
2022/05/03 08:07:38;;;;;;;;;31.75;28.00;;;;;;;;5057074;28;45431;-73
2022/05/03 08:10:03;;;;;;;;;39.00;32.25;;;;;;;;5059078;28;45332;-75
2022/05/03 08:12:28;;;;;;;;;35.25;30.75;;;;;;;;5049620;28;45517;-75
2022/05/03 08:14:55;;;;;;;;;30.25;28.75;;;;;;;;5057087;28;45290;-75
2022/05/03 08:17:21;;;;;;;;;35.75;30.50;;;;;;;;5052000;28;45385;-76
2022/05/03 08:19:46;;;;;;;;;34.75;28.50;;;;;;;;5057259;28;45222;-75
2022/05/03 08:22:11;;;;;;;;;27.75;26.75;;;;;;;;5053742;28;46370;-75
2022/05/03 08:24:37;;;;;;;;;32.75;29.00;;;;;;;;5059147;28;45418;-75
2022/05/03 08:27:03;;;;;;;;;27.25;26.50;;;;;;;;5053183;28;45370;-75
2022/05/03 08:29:29;;;;;;;;;33.00;30.75;;;;;;;;5056809;28;45374;-75
2022/05/03 08:31:54;;;;;;;;;37.25;33.50;;;;;;;;5052061;28;45346;-75
2022/05/03 08:34:20;;;;;;;;;34.00;29.25;;;;;;;;5058816;28;45297;-75
2022/05/03 08:42:01;;;;;;;;;32.75;28.25;;;;;;;;5052490;28;45426;-75
2022/05/03 08:42:16;;;;;;;;;29.00;25.50;;;;;;;;5052161;28;45399;-75
2022/05/03 08:44:41;;;;;;;;;28.00;26.50;;;;;;;;5058578;28;45422;-75
2022/05/03 08:47:06;;;;;;;;;27.00;26.00;;;;;;;;5052340;28;45286;-75
2022/05/03 08:49:38;;;;;;;;;33.00;30.00;;;;;;;;5057445;28;46434;-75
2022/05/03 08:52:05;;;;;;;;;20.00;18.00;;;;;;;;5054432;28;45437;-75
2022/05/03 08:54:32;;;;;;;;;29.50;28.50;;;;;;;;5057332;28;46436;-75
2022/05/03 08:56:57;;;;;;;;;25.00;24.67;;;;;;;;5054394;28;45319;-75
2022/05/03 08:59:23;;;;;;;;;27.00;23.67;;;;;;;;5056239;28;46044;-75
2022/05/03 09:01:48;;;;;;;;;25.33;25.00;;;;;;;;5055100;28;46186;-75
2022/05/03 09:04:14;;;;;;;;;32.67;28.00;;;;;;;;5065292;28;45491;-75
2022/05/03 09:06:40;;;;;;;;;28.33;27.33;;;;;;;;5056346;28;45463;-75
2022/05/03 09:09:08;;;;;;;;;28.33;23.00;;;;;;;;5058095;28;45560;-75
2022/05/03 09:11:41;;;;;;;;;27.33;26.33;;;;;;;;5056113;28;46173;-75
2022/05/03 09:14:10;;;;;;;;;24.33;21.67;;;;;;;;5057069;28;45244;-75
2022/05/03 09:16:46;;;;;;;;;27.33;25.00;;;;;;;;5056110;28;45316;-75
2022/05/03 09:19:21;;;;;;;;;27.33;26.33;;;;;;;;5051404;28;45318;-75
2022/05/03 09:24:49;;;;;;;;;32.00;26.00;;;;;;;;5059110;28;45551;-75
2022/05/03 09:27:17;;;;;;;;;30.00;27.00;;;;;;;;5055685;28;45433;-75
2022/05/03 09:29:58;;;;;;;;;28.00;23.33;;;;;;;;5061399;28;45726;-75
2022/05/03 09:32:32;;;;;;;;;25.00;24.00;;;;;;;;5055251;28;46239;-75
2022/05/03 09:34:58;;;;;;;;;31.67;27.00;;;;;;;;5060280;28;46180;-75
2022/05/03 09:37:36;;;;;;;;;31.00;27.33;;;;;;;;5057166;28;45388;-75
2022/05/03 09:40:02;;;;;;;;;31.00;26.67;;;;;;;;5061499;28;45288;-76
2022/05/03 09:42:28;;;;;;;;;26.00;23.00;;;;;;;;5054809;28;47600;-76
2022/05/03 09:44:54;;;;;;;;;28.00;22.33;;;;;;;;5060154;28;45400;-75
2022/05/03 09:47:21;;;;;;;;;28.00;25.33;;;;;;;;5054848;28;45138;-75
2022/05/03 09:49:46;;;;;;;;;25.67;22.00;;;;;;;;5060130;28;45356;-75
2022/05/03 09:52:28;;;;;;;;;28.00;25.00;;;;;;;;5058377;28;46413;-75
2022/05/03 09:54:55;;;;;;;;;24.67;21.67;;;;;;;;5057931;28;45316;-75
2022/05/03 09:57:23;;;;;;;;;22.67;20.33;;;;;;;;5056941;28;45237;-75
2022/05/03 09:59:50;;;;;;;;;25.67;24.33;;;;;;;;5058184;28;45438;-75
2022/05/03 10:02:19;;;;;;;;;29.67;25.67;;;;;;;;5057647;28;45441;-75
2022/05/03 10:04:48;;;;;;;;;26.33;22.33;;;;;;;;5061058;28;45235;-75
2022/05/03 10:07:14;;;;;;;;;29.67;26.00;;;;;;;;5059148;28;45360;-75
2022/05/03 10:09:40;;;;;;;;;26.33;25.00;;;;;;;;5059699;28;46287;-75
2022/05/03 10:12:06;;;;;;;;;24.00;22.33;;;;;;;;5056205;28;46715;-75
2022/05/03 10:14:31;;;;;;;;;23.67;22.33;;;;;;;;5056679;28;46023;-75
2022/05/03 10:22:29;;;;;;;;;20.67;18.33;;;;;;;;5052181;28;45437;-75
2022/05/03 10:24:55;;;;;;;;;20.67;19.67;;;;;;;;5060858;28;45414;-75
2022/05/03 10:27:26;;;;;;;;;23.67;22.67;;;;;;;;5055687;28;45225;-75
2022/05/03 10:30:11;;;;;;;;;17.33;16.33;;;;;;;;5059316;28;46505;-76
2022/05/03 10:32:36;;;;;;;;;21.00;19.33;;;;;;;;5052625;28;48801;-75
2022/05/03 10:35:03;;;;;;;;;21.33;18.33;;;;;;;;5052923;28;45473;-75
2022/05/03 10:37:29;;;;;;;;;19.00;16.00;;;;;;;;5052941;28;45279;-75
2022/05/03 10:39:55;;;;;;;;;17.67;16.00;;;;;;;;5060561;28;45347;-74
2022/05/03 10:42:24;;;;;;;;;17.00;17.00;;;;;;;;5052523;28;47345;-75
2022/05/03 10:44:52;;;;;;;;;19.67;19.67;;;;;;;;5062357;28;45369;-75
2022/05/03 10:47:19;;;;;;;;;18.67;17.33;;;;;;;;5056212;28;45381;-75
2022/05/03 10:50:03;;;;;;;;;16.50;13.50;;;;;;;;5060022;28;45228;-75
2022/05/03 10:52:28;;;;;;;;;13.67;12.00;;;;;;;;5058644;28;46284;-75
2022/05/03 10:55:06;;;;;;;;;12.67;12.67;;;;;;;;5058128;28;45880;-75
2022/05/03 10:57:32;;;;;;;;;15.33;13.33;;;;;;;;5057566;28;45438;-76
2022/05/03 10:59:57;;;;;;;;;11.00;11.00;;;;;;;;5059891;28;45285;-76
2022/05/03 11:02:23;;;;;;;;;13.33;12.00;;;;;;;;5057379;28;46937;-76
2022/05/03 11:05:07;;;;;;;;;16.67;14.33;;;;;;;;5059060;28;45217;-75
2022/05/03 11:07:32;;;;;;;;;13.00;12.00;;;;;;;;5052011;28;45491;-75
2022/05/03 11:10:17;;;;;;;;;15.00;12.25;;;;;;;;5058173;28;45417;-74
2022/05/03 11:12:49;;;;;;;;;13.67;12.00;;;;;;;;5050774;28;46568;-74
2022/05/03 11:15:14;;;;;;;;;15.00;14.00;;;;;;;;5060098;28;45232;-75
2022/05/03 11:17:42;;;;;;;;;13.50;12.50;;;;;;;;5054361;28;45228;-75
2022/05/03 11:20:07;;;;;;;;;1.00;1.00;;;;;;;;5060504;28;45965;-75
2022/05/03 11:22:35;;;;;;;;;10.75;9.50;;;;;;;;5056561;28;45398;-77
2022/05/03 11:25:05;;;;;;;;;10.50;9.50;;;;;;;;5060261;28;45307;-75
2022/05/03 11:27:31;;;;;;;;;14.75;12.50;;;;;;;;5054807;28;45542;-76
2022/05/03 11:30:00;;;;;;;;;7.75;7.50;;;;;;;;5059817;28;45390;-75
2022/05/03 11:32:28;;;;;;;;;11.25;10.00;;;;;;;;5053144;28;46126;-75
2022/05/03 11:34:58;;;;;;;;;11.00;10.00;;;;;;;;5058934;28;45362;-75
2022/05/03 11:37:24;;;;;;;;;10.00;10.00;;;;;;;;5053551;28;46363;-76
2022/05/03 11:39:52;;;;;;;;;9.00;9.00;;;;;;;;5060009;28;45308;-75
2022/05/03 11:42:21;;;;;;;;;8.67;8.67;;;;;;;;5053316;28;45434;-76
2022/05/03 11:44:46;;;;;;;;;9.67;9.67;;;;;;;;5055192;28;45341;-76
2022/05/03 11:47:13;;;;;;;;;11.33;10.33;;;;;;;;5052765;28;45355;-76
2022/05/03 11:49:38;;;;;;;;;9.00;7.33;;;;;;;;5056373;28;45406;-75
2022/05/03 11:57:33;;;;;;;;;9.00;8.00;;;;;;;;5056037;28;45437;-75
2022/05/03 11:59:59;;;;;;;;;12.00;9.00;;;;;;;;5057733;28;46103;-76
2022/05/03 12:02:31;;;;;;;;;11.50;7.00;;;;;;;;5056473;28;45394;-75
2022/05/03 12:05:04;;;;;;;;;6.50;6.50;;;;;;;;5058324;28;45228;-75
2022/05/03 12:07:50;;;;;;;;;11.25;7.00;;;;;;;;5051931;28;45414;-76
2022/05/03 12:10:29;;;;;;;;;6.50;6.00;;;;;;;;5045454;28;45306;-76
2022/05/03 12:13:06;;;;;;;;;7.00;6.75;;;;;;;;5049016;28;45497;-76
2022/05/03 12:15:32;;;;;;;;;7.75;6.50;;;;;;;;5059233;28;45386;-76
2022/05/03 12:18:03;;;;;;;;;6.25;5.25;;;;;;;;5050082;28;45275;-76
2022/05/03 12:20:40;;;;;;;;;9.00;7.00;;;;;;;;5049422;28;45882;-76
2022/05/03 12:23:12;;;;;;;;;8.75;7.25;;;;;;;;5048928;28;47690;-77
2022/05/03 12:25:38;;;;;;;;;8.00;7.25;;;;;;;;5058103;28;45257;-75
2022/05/03 12:28:06;;;;;;;;;8.25;8.25;;;;;;;;5052557;28;45411;-76
2022/05/03 12:30:31;;;;;;;;;9.75;8.75;;;;;;;;5059012;28;45320;-76
2022/05/03 12:33:07;;;;;;;;;8.50;7.00;;;;;;;;5057353;28;45545;-76
2022/05/03 12:35:33;;;;;;;;;8.75;6.00;;;;;;;;5064862;27;45373;-74
2022/05/03 12:38:07;;;;;;;;;6.25;5.75;;;;;;;;5052052;28;45391;-76
2022/05/03 12:40:33;;;;;;;;;7.25;7.00;;;;;;;;5058695;28;45504;-74
2022/05/03 12:43:08;;;;;;;;;8.00;6.00;;;;;;;;5051886;28;46226;-74
2022/05/03 12:45:33;;;;;;;;;4.00;4.00;;;;;;;;5058550;28;45327;-74
2022/05/03 12:47:58;;;;;;;;;5.00;5.00;;;;;;;;5051003;28;45509;-75
2022/05/03 12:50:23;;;;;;;;;6.00;6.00;;;;;;;;5055519;28;45354;-75
2022/05/03 12:52:49;;;;;;;;;4.50;4.50;;;;;;;;5051320;28;47254;-75
2022/05/03 12:55:14;;;;;;;;;4.75;4.75;;;;;;;;5054736;28;45374;-74
2022/05/03 13:00:23;;;;;;;;;7.50;6.00;;;;;;;;5059322;28;45581;-75
2022/05/03 13:02:48;;;;;;;;;4.50;4.25;;;;;;;;5059365;28;45718;-75
2022/05/03 13:05:14;;;;;;;;;6.75;6.75;;;;;;;;5060334;28;45450;-75
2022/05/03 13:07:39;;;;;;;;;7.00;6.25;;;;;;;;5053196;28;45327;-75
2022/05/03 13:10:04;;;;;;;;;6.00;4.50;;;;;;;;5060424;28;45509;-76
2022/05/03 13:12:30;;;;;;;;;7.25;5.75;;;;;;;;5054058;28;46120;-76
2022/05/03 13:14:56;;;;;;;;;6.75;5.50;;;;;;;;5060223;28;45428;-75
2022/05/03 13:17:21;;;;;;;;;6.50;6.00;;;;;;;;5055967;28;45284;-75
2022/05/03 13:19:46;;;;;;;;;6.25;5.25;;;;;;;;5061624;28;45259;-76
2022/05/03 13:22:12;;;;;;;;;5.25;5.00;;;;;;;;5055422;28;45445;-76
2022/05/03 13:24:37;;;;;;;;;8.00;7.00;;;;;;;;5061695;28;45352;-75
2022/05/03 13:27:02;;;;;;;;;8.25;6.50;;;;;;;;5053600;28;45236;-75
2022/05/03 13:29:30;;;;;;;;;5.75;4.00;;;;;;;;5059612;28;45465;-75
2022/05/03 13:31:55;;;;;;;;;9.75;7.50;;;;;;;;5055008;28;47227;-74
2022/05/03 13:34:20;;;;;;;;;6.75;6.75;;;;;;;;5061768;28;45379;-75
2022/05/03 13:42:13;;;;;;;;;6.75;6.75;;;;;;;;5054568;28;45438;-76
2022/05/03 13:44:39;;;;;;;;;5.25;5.25;;;;;;;;5061430;28;45229;-76
2022/05/03 13:47:04;;;;;;;;;6.50;6.50;;;;;;;;5053765;28;45544;-75
2022/05/03 13:49:30;;;;;;;;;6.75;5.00;;;;;;;;5057410;28;45352;-75
2022/05/03 13:51:55;;;;;;;;;11.25;8.25;;;;;;;;5058108;28;45560;-76
2022/05/03 13:54:21;;;;;;;;;6.00;5.00;;;;;;;;5058748;28;45358;-75
2022/05/03 13:56:46;;;;;;;;;8.75;6.00;;;;;;;;5057801;28;46864;-76
2022/05/03 13:59:12;;;;;;;;;6.75;5.25;;;;;;;;5059376;28;45376;-75
2022/05/03 14:01:38;;;;;;;;;5.75;5.75;;;;;;;;5058298;28;45946;-76
2022/05/03 14:04:03;;;;;;;;;5.80;4.60;;;;;;;;5060228;28;45638;-76
2022/05/03 14:06:29;;;;;;;;;5.50;5.50;;;;;;;;5059022;28;45364;-75
2022/05/03 14:08:55;;;;;;;;;4.60;4.60;;;;;;;;5052678;28;45178;-75
2022/05/03 14:11:20;;;;;;;;;5.75;5.75;;;;;;;;5058216;28;46532;-75
2022/05/03 14:13:45;;;;;;;;;4.50;4.50;;;;;;;;5053976;28;45401;-75
2022/05/03 14:16:12;;;;;;;;;5.00;5.00;;;;;;;;5060020;28;45204;-76
2022/05/03 14:18:37;;;;;;;;;7.00;4.25;;;;;;;;5059126;28;45380;-75
2022/05/03 14:21:03;;;;;;;;;5.25;5.00;;;;;;;;5058035;28;47196;-75
2022/05/03 14:23:28;;;;;;;;;4.75;4.75;;;;;;;;5053482;28;45194;-76
2022/05/03 14:25:53;;;;;;;;;7.25;7.25;;;;;;;;5060095;28;45215;-75
2022/05/03 14:28:19;;;;;;;;;5.25;4.25;;;;;;;;5054378;28;45273;-75
2022/05/03 14:30:45;;;;;;;;;6.25;6.25;;;;;;;;5060366;28;46024;-76
2022/05/03 14:33:10;;;;;;;;;8.00;8.00;;;;;;;;5053977;28;45545;-76
2022/05/03 14:35:35;;;;;;;;;5.25;5.25;;;;;;;;5061096;28;45394;-76
2022/05/03 14:38:00;;;;;;;;;6.25;6.25;;;;;;;;5053840;28;45451;-76
2022/05/03 14:40:26;;;;;;;;;7.25;7.00;;;;;;;;5059121;28;47172;-75
2022/05/03 14:42:51;;;;;;;;;9.50;8.25;;;;;;;;5053312;28;45277;-76
2022/05/03 14:45:18;;;;;;;;;7.00;7.00;;;;;;;;5060433;28;45311;-75
2022/05/03 14:47:43;;;;;;;;;7.25;6.75;;;;;;;;5054225;28;45299;-76
2022/05/03 14:50:08;;;;;;;;;8.25;7.25;;;;;;;;5056413;28;45423;-75
2022/05/03 14:52:34;;;;;;;;;10.25;7.75;;;;;;;;5058183;28;45354;-75
2022/05/03 14:54:59;;;;;;;;;5.25;5.00;;;;;;;;5057699;28;45344;-75
2022/05/03 15:02:54;;;;;;;;;5.00;5.00;;;;;;;;5057777;28;45517;-75
2022/05/03 15:05:21;;;;;;;;;6.25;6.25;;;;;;;;5058505;28;45390;-75
2022/05/03 15:07:46;;;;;;;;;7.67;6.33;;;;;;;;5048989;28;46188;-75
2022/05/03 15:10:12;;;;;;;;;8.00;5.67;;;;;;;;5059056;28;45299;-75